sensor_id;sensor_type;location;lat;lon;timestamp;P1;durP1;ratioP1;P2;durP2;ratioP2
75289;SDS011;63883;48.996;20.804;2023-04-29T00:00:48;8.02;;;5.68;;
75289;SDS011;63883;48.996;20.804;2023-04-29T00:03:16;8.82;;;5.38;;
75289;SDS011;63883;48.996;20.804;2023-04-29T00:05:43;7.35;;;5.43;;
75289;SDS011;63883;48.996;20.804;2023-04-29T00:08:09;7.88;;;5.82;;
75289;SDS011;63883;48.996;20.804;2023-04-29T00:10:34;9.30;;;5.75;;
75289;SDS011;63883;48.996;20.804;2023-04-29T00:13:00;9.30;;;6.45;;
75289;SDS011;63883;48.996;20.804;2023-04-29T00:15:26;8.18;;;6.15;;
75289;SDS011;63883;48.996;20.804;2023-04-29T00:17:52;8.98;;;6.25;;
75289;SDS011;63883;48.996;20.804;2023-04-29T00:20:18;8.90;;;5.97;;
75289;SDS011;63883;48.996;20.804;2023-04-29T00:22:44;8.73;;;6.53;;
75289;SDS011;63883;48.996;20.804;2023-04-29T00:25:09;8.57;;;5.82;;
75289;SDS011;63883;48.996;20.804;2023-04-29T00:27:36;8.98;;;6.15;;
75289;SDS011;63883;48.996;20.804;2023-04-29T00:30:04;9.90;;;6.75;;
75289;SDS011;63883;48.996;20.804;2023-04-29T00:32:32;7.72;;;5.72;;
75289;SDS011;63883;48.996;20.804;2023-04-29T00:34:58;10.32;;;6.07;;
75289;SDS011;63883;48.996;20.804;2023-04-29T00:37:24;7.35;;;5.47;;
75289;SDS011;63883;48.996;20.804;2023-04-29T00:39:50;9.02;;;5.75;;
75289;SDS011;63883;48.996;20.804;2023-04-29T00:42:16;7.05;;;5.68;;
75289;SDS011;63883;48.996;20.804;2023-04-29T00:44:41;9.82;;;6.07;;
75289;SDS011;63883;48.996;20.804;2023-04-29T00:47:07;8.75;;;5.70;;
75289;SDS011;63883;48.996;20.804;2023-04-29T00:49:38;9.30;;;5.03;;
75289;SDS011;63883;48.996;20.804;2023-04-29T00:52:04;7.25;;;5.32;;
75289;SDS011;63883;48.996;20.804;2023-04-29T00:54:32;9.13;;;5.47;;
75289;SDS011;63883;48.996;20.804;2023-04-29T00:57:00;9.18;;;5.88;;
75289;SDS011;63883;48.996;20.804;2023-04-29T00:59:27;9.18;;;5.78;;
75289;SDS011;63883;48.996;20.804;2023-04-29T01:01:58;6.82;;;5.55;;
75289;SDS011;63883;48.996;20.804;2023-04-29T01:04:25;7.18;;;5.68;;
75289;SDS011;63883;48.996;20.804;2023-04-29T01:12:36;8.85;;;5.68;;
75289;SDS011;63883;48.996;20.804;2023-04-29T01:15:12;8.48;;;5.57;;
75289;SDS011;63883;48.996;20.804;2023-04-29T01:18:02;7.13;;;5.53;;
75289;SDS011;63883;48.996;20.804;2023-04-29T01:20:29;9.15;;;6.05;;
75289;SDS011;63883;48.996;20.804;2023-04-29T01:22:56;8.40;;;6.20;;
75289;SDS011;63883;48.996;20.804;2023-04-29T01:25:22;7.10;;;5.13;;
75289;SDS011;63883;48.996;20.804;2023-04-29T01:27:55;7.90;;;5.90;;
75289;SDS011;63883;48.996;20.804;2023-04-29T01:30:35;8.77;;;5.85;;
75289;SDS011;63883;48.996;20.804;2023-04-29T01:39:16;6.95;;;5.20;;
75289;SDS011;63883;48.996;20.804;2023-04-29T01:41:52;8.32;;;5.25;;
75289;SDS011;63883;48.996;20.804;2023-04-29T01:44:26;8.27;;;5.90;;
75289;SDS011;63883;48.996;20.804;2023-04-29T01:46:54;8.73;;;5.57;;
75289;SDS011;63883;48.996;20.804;2023-04-29T01:49:24;9.68;;;6.15;;
75289;SDS011;63883;48.996;20.804;2023-04-29T01:51:50;8.57;;;6.20;;
75289;SDS011;63883;48.996;20.804;2023-04-29T01:54:16;8.75;;;6.18;;
75289;SDS011;63883;48.996;20.804;2023-04-29T01:56:42;7.68;;;6.60;;
75289;SDS011;63883;48.996;20.804;2023-04-29T01:59:08;9.02;;;6.43;;
75289;SDS011;63883;48.996;20.804;2023-04-29T02:01:35;8.98;;;6.75;;
75289;SDS011;63883;48.996;20.804;2023-04-29T02:04:01;8.73;;;6.40;;
75289;SDS011;63883;48.996;20.804;2023-04-29T02:06:27;9.93;;;6.28;;
75289;SDS011;63883;48.996;20.804;2023-04-29T02:08:53;8.95;;;6.40;;
75289;SDS011;63883;48.996;20.804;2023-04-29T02:11:18;10.05;;;6.50;;
75289;SDS011;63883;48.996;20.804;2023-04-29T02:13:44;10.10;;;6.80;;
75289;SDS011;63883;48.996;20.804;2023-04-29T02:16:10;9.60;;;6.45;;
75289;SDS011;63883;48.996;20.804;2023-04-29T02:18:37;9.45;;;6.68;;
75289;SDS011;63883;48.996;20.804;2023-04-29T02:21:04;10.23;;;6.70;;
75289;SDS011;63883;48.996;20.804;2023-04-29T02:23:30;10.73;;;6.90;;
75289;SDS011;63883;48.996;20.804;2023-04-29T02:25:55;10.05;;;6.47;;
75289;SDS011;63883;48.996;20.804;2023-04-29T02:28:21;9.43;;;6.50;;
75289;SDS011;63883;48.996;20.804;2023-04-29T02:30:50;10.25;;;6.68;;
75289;SDS011;63883;48.996;20.804;2023-04-29T02:33:16;8.75;;;6.40;;
75289;SDS011;63883;48.996;20.804;2023-04-29T02:35:42;9.65;;;6.38;;
75289;SDS011;63883;48.996;20.804;2023-04-29T02:38:09;9.75;;;6.45;;
75289;SDS011;63883;48.996;20.804;2023-04-29T02:40:41;9.30;;;5.95;;
75289;SDS011;63883;48.996;20.804;2023-04-29T02:43:08;8.90;;;6.32;;
75289;SDS011;63883;48.996;20.804;2023-04-29T02:45:34;9.77;;;6.20;;
75289;SDS011;63883;48.996;20.804;2023-04-29T02:48:00;8.57;;;5.70;;
75289;SDS011;63883;48.996;20.804;2023-04-29T02:50:26;8.85;;;5.78;;
75289;SDS011;63883;48.996;20.804;2023-04-29T02:52:53;7.75;;;5.63;;
75289;SDS011;63883;48.996;20.804;2023-04-29T02:55:19;10.45;;;6.30;;
75289;SDS011;63883;48.996;20.804;2023-04-29T02:57:45;7.95;;;6.03;;
75289;SDS011;63883;48.996;20.804;2023-04-29T03:00:10;12.10;;;5.80;;
75289;SDS011;63883;48.996;20.804;2023-04-29T03:02:36;8.80;;;5.68;;
75289;SDS011;63883;48.996;20.804;2023-04-29T03:05:02;8.27;;;5.60;;
75289;SDS011;63883;48.996;20.804;2023-04-29T03:07:29;8.10;;;6.13;;
75289;SDS011;63883;48.996;20.804;2023-04-29T03:09:55;8.70;;;6.05;;
75289;SDS011;63883;48.996;20.804;2023-04-29T03:12:21;8.63;;;5.57;;
75289;SDS011;63883;48.996;20.804;2023-04-29T03:14:47;7.82;;;6.07;;
75289;SDS011;63883;48.996;20.804;2023-04-29T03:17:13;11.25;;;6.22;;
75289;SDS011;63883;48.996;20.804;2023-04-29T03:19:39;10.85;;;7.20;;
75289;SDS011;63883;48.996;20.804;2023-04-29T03:22:05;12.63;;;7.80;;
75289;SDS011;63883;48.996;20.804;2023-04-29T03:24:32;13.00;;;7.57;;
75289;SDS011;63883;48.996;20.804;2023-04-29T03:26:58;10.15;;;6.93;;
75289;SDS011;63883;48.996;20.804;2023-04-29T03:31:52;10.02;;;6.60;;
75289;SDS011;63883;48.996;20.804;2023-04-29T03:34:19;8.32;;;5.80;;
75289;SDS011;63883;48.996;20.804;2023-04-29T03:36:44;10.77;;;6.72;;
75289;SDS011;63883;48.996;20.804;2023-04-29T03:39:10;9.85;;;6.38;;
75289;SDS011;63883;48.996;20.804;2023-04-29T03:41:39;8.77;;;6.18;;
75289;SDS011;63883;48.996;20.804;2023-04-29T03:44:05;8.40;;;5.90;;
75289;SDS011;63883;48.996;20.804;2023-04-29T03:46:31;10.50;;;6.47;;
75289;SDS011;63883;48.996;20.804;2023-04-29T03:48:56;8.05;;;6.28;;
75289;SDS011;63883;48.996;20.804;2023-04-29T03:51:22;10.70;;;6.53;;
75289;SDS011;63883;48.996;20.804;2023-04-29T03:53:49;9.60;;;6.22;;
75289;SDS011;63883;48.996;20.804;2023-04-29T03:56:16;9.52;;;6.72;;
75289;SDS011;63883;48.996;20.804;2023-04-29T03:58:41;8.57;;;7.13;;
75289;SDS011;63883;48.996;20.804;2023-04-29T04:01:07;12.60;;;6.65;;
75289;SDS011;63883;48.996;20.804;2023-04-29T04:03:33;8.88;;;6.43;;
75289;SDS011;63883;48.996;20.804;2023-04-29T04:05:59;9.15;;;6.72;;
75289;SDS011;63883;48.996;20.804;2023-04-29T04:08:24;12.38;;;7.05;;
75289;SDS011;63883;48.996;20.804;2023-04-29T04:10:50;10.10;;;6.78;;
75289;SDS011;63883;48.996;20.804;2023-04-29T04:13:16;9.00;;;6.38;;
75289;SDS011;63883;48.996;20.804;2023-04-29T04:15:42;8.70;;;6.40;;
75289;SDS011;63883;48.996;20.804;2023-04-29T04:18:13;10.52;;;6.53;;
75289;SDS011;63883;48.996;20.804;2023-04-29T04:20:39;8.52;;;6.55;;
75289;SDS011;63883;48.996;20.804;2023-04-29T04:23:05;9.63;;;6.20;;
75289;SDS011;63883;48.996;20.804;2023-04-29T04:25:30;9.98;;;6.57;;
75289;SDS011;63883;48.996;20.804;2023-04-29T04:27:56;10.82;;;6.50;;
75289;SDS011;63883;48.996;20.804;2023-04-29T04:30:22;9.93;;;6.43;;
75289;SDS011;63883;48.996;20.804;2023-04-29T04:32:48;11.02;;;6.60;;
75289;SDS011;63883;48.996;20.804;2023-04-29T04:35:14;12.13;;;7.13;;
75289;SDS011;63883;48.996;20.804;2023-04-29T04:37:39;9.25;;;6.38;;
75289;SDS011;63883;48.996;20.804;2023-04-29T04:40:05;9.55;;;6.53;;
75289;SDS011;63883;48.996;20.804;2023-04-29T04:42:32;9.50;;;7.15;;
75289;SDS011;63883;48.996;20.804;2023-04-29T04:44:58;8.93;;;6.70;;
75289;SDS011;63883;48.996;20.804;2023-04-29T04:47:23;10.23;;;6.40;;
75289;SDS011;63883;48.996;20.804;2023-04-29T04:49:49;12.82;;;8.02;;
75289;SDS011;63883;48.996;20.804;2023-04-29T04:52:19;13.82;;;8.18;;
75289;SDS011;63883;48.996;20.804;2023-04-29T04:54:46;13.00;;;7.18;;
75289;SDS011;63883;48.996;20.804;2023-04-29T04:57:12;16.02;;;7.28;;
75289;SDS011;63883;48.996;20.804;2023-04-29T04:59:38;14.38;;;7.63;;
75289;SDS011;63883;48.996;20.804;2023-04-29T05:02:03;15.82;;;7.93;;
75289;SDS011;63883;48.996;20.804;2023-04-29T05:04:29;17.42;;;8.15;;
75289;SDS011;63883;48.996;20.804;2023-04-29T05:06:55;16.73;;;8.35;;
75289;SDS011;63883;48.996;20.804;2023-04-29T05:09:21;21.05;;;8.77;;
75289;SDS011;63883;48.996;20.804;2023-04-29T05:11:47;16.98;;;9.05;;
75289;SDS011;63883;48.996;20.804;2023-04-29T05:14:12;18.40;;;8.88;;
75289;SDS011;63883;48.996;20.804;2023-04-29T05:16:38;20.00;;;9.00;;
75289;SDS011;63883;48.996;20.804;2023-04-29T05:19:04;20.20;;;8.82;;
75289;SDS011;63883;48.996;20.804;2023-04-29T05:21:29;17.80;;;9.27;;
75289;SDS011;63883;48.996;20.804;2023-04-29T05:23:56;18.60;;;9.43;;
75289;SDS011;63883;48.996;20.804;2023-04-29T05:26:22;20.75;;;9.60;;
75289;SDS011;63883;48.996;20.804;2023-04-29T05:28:48;19.13;;;8.93;;
75289;SDS011;63883;48.996;20.804;2023-04-29T05:31:13;18.48;;;9.13;;
75289;SDS011;63883;48.996;20.804;2023-04-29T05:33:39;19.48;;;9.05;;
75289;SDS011;63883;48.996;20.804;2023-04-29T05:36:05;18.52;;;8.85;;
75289;SDS011;63883;48.996;20.804;2023-04-29T05:38:31;20.67;;;9.52;;
75289;SDS011;63883;48.996;20.804;2023-04-29T05:40:57;22.45;;;9.15;;
75289;SDS011;63883;48.996;20.804;2023-04-29T05:43:23;22.70;;;9.45;;
75289;SDS011;63883;48.996;20.804;2023-04-29T05:45:49;20.08;;;9.40;;
75289;SDS011;63883;48.996;20.804;2023-04-29T05:48:15;18.15;;;8.23;;
75289;SDS011;63883;48.996;20.804;2023-04-29T05:50:41;16.50;;;8.20;;
75289;SDS011;63883;48.996;20.804;2023-04-29T05:53:07;16.02;;;8.35;;
75289;SDS011;63883;48.996;20.804;2023-04-29T05:55:32;17.85;;;9.00;;
75289;SDS011;63883;48.996;20.804;2023-04-29T05:57:58;20.88;;;9.68;;
75289;SDS011;63883;48.996;20.804;2023-04-29T06:00:24;18.02;;;9.48;;
75289;SDS011;63883;48.996;20.804;2023-04-29T06:02:49;18.40;;;9.60;;
75289;SDS011;63883;48.996;20.804;2023-04-29T06:05:15;17.65;;;9.32;;
75289;SDS011;63883;48.996;20.804;2023-04-29T06:07:41;16.73;;;9.45;;
75289;SDS011;63883;48.996;20.804;2023-04-29T06:10:08;22.40;;;8.57;;
75289;SDS011;63883;48.996;20.804;2023-04-29T06:12:35;16.45;;;9.07;;
75289;SDS011;63883;48.996;20.804;2023-04-29T06:15:00;15.07;;;8.82;;
75289;SDS011;63883;48.996;20.804;2023-04-29T06:17:26;15.70;;;8.18;;
75289;SDS011;63883;48.996;20.804;2023-04-29T06:19:56;15.27;;;9.07;;
75289;SDS011;63883;48.996;20.804;2023-04-29T06:22:22;13.98;;;8.52;;
75289;SDS011;63883;48.996;20.804;2023-04-29T06:24:48;15.40;;;8.73;;
75289;SDS011;63883;48.996;20.804;2023-04-29T06:27:17;14.07;;;8.27;;
75289;SDS011;63883;48.996;20.804;2023-04-29T06:29:42;14.32;;;9.15;;
75289;SDS011;63883;48.996;20.804;2023-04-29T06:32:08;18.17;;;8.75;;
75289;SDS011;63883;48.996;20.804;2023-04-29T06:34:34;15.85;;;9.70;;
75289;SDS011;63883;48.996;20.804;2023-04-29T06:37:00;15.27;;;9.30;;
75289;SDS011;63883;48.996;20.804;2023-04-29T06:39:26;14.40;;;9.27;;
75289;SDS011;63883;48.996;20.804;2023-04-29T06:41:52;14.10;;;8.25;;
75289;SDS011;63883;48.996;20.804;2023-04-29T06:44:17;12.43;;;7.90;;
75289;SDS011;63883;48.996;20.804;2023-04-29T06:46:43;13.85;;;8.27;;
75289;SDS011;63883;48.996;20.804;2023-04-29T06:49:09;12.02;;;7.53;;
75289;SDS011;63883;48.996;20.804;2023-04-29T06:51:38;24.00;;;8.55;;
75289;SDS011;63883;48.996;20.804;2023-04-29T06:54:03;11.27;;;7.45;;
75289;SDS011;63883;48.996;20.804;2023-04-29T06:56:29;12.52;;;7.22;;
75289;SDS011;63883;48.996;20.804;2023-04-29T06:58:55;12.13;;;7.63;;
75289;SDS011;63883;48.996;20.804;2023-04-29T07:01:21;10.02;;;7.13;;
75289;SDS011;63883;48.996;20.804;2023-04-29T07:03:47;10.15;;;6.78;;
75289;SDS011;63883;48.996;20.804;2023-04-29T07:06:13;13.10;;;7.15;;
75289;SDS011;63883;48.996;20.804;2023-04-29T07:08:38;9.43;;;6.85;;
75289;SDS011;63883;48.996;20.804;2023-04-29T07:11:04;9.57;;;6.32;;
75289;SDS011;63883;48.996;20.804;2023-04-29T07:13:30;10.23;;;6.45;;
75289;SDS011;63883;48.996;20.804;2023-04-29T07:15:56;9.07;;;6.50;;
75289;SDS011;63883;48.996;20.804;2023-04-29T07:18:22;11.05;;;6.57;;
75289;SDS011;63883;48.996;20.804;2023-04-29T07:20:48;10.60;;;6.13;;
75289;SDS011;63883;48.996;20.804;2023-04-29T07:23:15;10.57;;;6.10;;
75289;SDS011;63883;48.996;20.804;2023-04-29T07:25:41;8.98;;;5.95;;
75289;SDS011;63883;48.996;20.804;2023-04-29T07:28:06;8.57;;;6.03;;
75289;SDS011;63883;48.996;20.804;2023-04-29T07:30:35;13.52;;;8.02;;
75289;SDS011;63883;48.996;20.804;2023-04-29T07:33:00;10.00;;;6.40;;
75289;SDS011;63883;48.996;20.804;2023-04-29T07:35:26;13.93;;;9.07;;
75289;SDS011;63883;48.996;20.804;2023-04-29T07:37:52;17.67;;;8.45;;
75289;SDS011;63883;48.996;20.804;2023-04-29T07:40:18;14.88;;;9.70;;
75289;SDS011;63883;48.996;20.804;2023-04-29T07:42:44;14.40;;;8.38;;
75289;SDS011;63883;48.996;20.804;2023-04-29T07:45:10;12.95;;;8.02;;
75289;SDS011;63883;48.996;20.804;2023-04-29T07:47:37;14.68;;;8.75;;
75289;SDS011;63883;48.996;20.804;2023-04-29T07:50:03;12.38;;;7.90;;
75289;SDS011;63883;48.996;20.804;2023-04-29T07:52:29;13.63;;;7.35;;
75289;SDS011;63883;48.996;20.804;2023-04-29T07:54:55;10.38;;;6.75;;
75289;SDS011;63883;48.996;20.804;2023-04-29T07:57:21;12.20;;;7.20;;
75289;SDS011;63883;48.996;20.804;2023-04-29T07:59:50;24.38;;;14.40;;
75289;SDS011;63883;48.996;20.804;2023-04-29T08:02:18;21.17;;;13.38;;
75289;SDS011;63883;48.996;20.804;2023-04-29T08:04:44;22.65;;;12.63;;
75289;SDS011;63883;48.996;20.804;2023-04-29T08:07:10;16.42;;;9.98;;
75289;SDS011;63883;48.996;20.804;2023-04-29T08:09:37;16.83;;;10.77;;
75289;SDS011;63883;48.996;20.804;2023-04-29T08:12:03;15.43;;;9.70;;
75289;SDS011;63883;48.996;20.804;2023-04-29T08:14:30;16.83;;;9.90;;
75289;SDS011;63883;48.996;20.804;2023-04-29T08:16:55;16.45;;;10.38;;
75289;SDS011;63883;48.996;20.804;2023-04-29T08:19:21;17.33;;;9.98;;
75289;SDS011;63883;48.996;20.804;2023-04-29T08:21:47;14.43;;;8.35;;
75289;SDS011;63883;48.996;20.804;2023-04-29T08:24:12;13.98;;;8.68;;
75289;SDS011;63883;48.996;20.804;2023-04-29T08:26:39;16.05;;;9.35;;
75289;SDS011;63883;48.996;20.804;2023-04-29T08:29:05;14.40;;;8.75;;
75289;SDS011;63883;48.996;20.804;2023-04-29T08:31:31;16.10;;;8.02;;
75289;SDS011;63883;48.996;20.804;2023-04-29T08:33:58;13.73;;;8.48;;
75289;SDS011;63883;48.996;20.804;2023-04-29T08:36:23;12.73;;;8.63;;
75289;SDS011;63883;48.996;20.804;2023-04-29T08:38:52;14.02;;;8.57;;
75289;SDS011;63883;48.996;20.804;2023-04-29T08:41:18;14.95;;;8.73;;
75289;SDS011;63883;48.996;20.804;2023-04-29T08:43:44;15.00;;;9.20;;
75289;SDS011;63883;48.996;20.804;2023-04-29T08:46:09;15.25;;;8.00;;
75289;SDS011;63883;48.996;20.804;2023-04-29T08:48:35;18.17;;;9.13;;
75289;SDS011;63883;48.996;20.804;2023-04-29T08:51:02;12.35;;;7.18;;
75289;SDS011;63883;48.996;20.804;2023-04-29T08:53:28;13.63;;;8.48;;
75289;SDS011;63883;48.996;20.804;2023-04-29T08:55:54;11.40;;;6.40;;
75289;SDS011;63883;48.996;20.804;2023-04-29T08:58:25;11.20;;;5.97;;
75289;SDS011;63883;48.996;20.804;2023-04-29T09:00:53;9.70;;;5.72;;
75289;SDS011;63883;48.996;20.804;2023-04-29T09:05:52;11.32;;;5.55;;
75289;SDS011;63883;48.996;20.804;2023-04-29T09:08:22;8.50;;;5.13;;
75289;SDS011;63883;48.996;20.804;2023-04-29T09:10:51;8.63;;;5.30;;
75289;SDS011;63883;48.996;20.804;2023-04-29T09:13:24;9.23;;;5.47;;
75289;SDS011;63883;48.996;20.804;2023-04-29T09:15:54;8.18;;;5.22;;
75289;SDS011;63883;48.996;20.804;2023-04-29T09:21:24;6.65;;;5.05;;
75289;SDS011;63883;48.996;20.804;2023-04-29T09:23:54;8.18;;;4.97;;
75289;SDS011;63883;48.996;20.804;2023-04-29T09:26:21;7.10;;;4.95;;
75289;SDS011;63883;48.996;20.804;2023-04-29T09:31:36;6.85;;;4.90;;
75289;SDS011;63883;48.996;20.804;2023-04-29T09:34:03;7.38;;;5.28;;
75289;SDS011;63883;48.996;20.804;2023-04-29T09:36:39;7.00;;;5.75;;
75289;SDS011;63883;48.996;20.804;2023-04-29T09:39:13;6.25;;;4.43;;
75289;SDS011;63883;48.996;20.804;2023-04-29T09:41:41;6.10;;;4.68;;
75289;SDS011;63883;48.996;20.804;2023-04-29T09:44:17;5.55;;;4.40;;
75289;SDS011;63883;48.996;20.804;2023-04-29T09:46:53;9.45;;;4.90;;
75289;SDS011;63883;48.996;20.804;2023-04-29T09:49:23;6.03;;;4.30;;
75289;SDS011;63883;48.996;20.804;2023-04-29T09:51:57;6.75;;;4.32;;
75289;SDS011;63883;48.996;20.804;2023-04-29T09:56:52;7.38;;;5.20;;
75289;SDS011;63883;48.996;20.804;2023-04-29T09:59:20;7.25;;;4.57;;
75289;SDS011;63883;48.996;20.804;2023-04-29T10:01:47;7.50;;;4.75;;
75289;SDS011;63883;48.996;20.804;2023-04-29T10:04:15;5.80;;;4.32;;
75289;SDS011;63883;48.996;20.804;2023-04-29T10:06:43;6.93;;;4.60;;
75289;SDS011;63883;48.996;20.804;2023-04-29T10:09:14;7.50;;;4.40;;
75289;SDS011;63883;48.996;20.804;2023-04-29T10:11:40;5.53;;;4.53;;
75289;SDS011;63883;48.996;20.804;2023-04-29T10:14:10;6.10;;;4.38;;
75289;SDS011;63883;48.996;20.804;2023-04-29T10:16:39;6.38;;;4.50;;
75289;SDS011;63883;48.996;20.804;2023-04-29T10:19:14;5.03;;;4.20;;
75289;SDS011;63883;48.996;20.804;2023-04-29T10:21:43;9.60;;;5.68;;
75289;SDS011;63883;48.996;20.804;2023-04-29T10:24:10;6.57;;;4.10;;
75289;SDS011;63883;48.996;20.804;2023-04-29T10:26:39;6.00;;;4.10;;
75289;SDS011;63883;48.996;20.804;2023-04-29T10:29:07;6.28;;;4.10;;
75289;SDS011;63883;48.996;20.804;2023-04-29T10:31:35;5.70;;;4.28;;
75289;SDS011;63883;48.996;20.804;2023-04-29T10:34:03;5.97;;;4.25;;
75289;SDS011;63883;48.996;20.804;2023-04-29T10:36:28;5.28;;;4.10;;
75289;SDS011;63883;48.996;20.804;2023-04-29T10:38:57;5.45;;;4.18;;
75289;SDS011;63883;48.996;20.804;2023-04-29T10:41:25;5.78;;;4.55;;
75289;SDS011;63883;48.996;20.804;2023-04-29T10:43:54;5.97;;;4.03;;
75289;SDS011;63883;48.996;20.804;2023-04-29T10:46:21;5.95;;;4.53;;
75289;SDS011;63883;48.996;20.804;2023-04-29T10:51:27;5.85;;;4.03;;
75289;SDS011;63883;48.996;20.804;2023-04-29T10:54:18;7.50;;;5.55;;
75289;SDS011;63883;48.996;20.804;2023-04-29T10:56:50;5.78;;;4.35;;
75289;SDS011;63883;48.996;20.804;2023-04-29T10:59:59;5.97;;;4.60;;
75289;SDS011;63883;48.996;20.804;2023-04-29T11:02:06;8.40;;;5.10;;
75289;SDS011;63883;48.996;20.804;2023-04-29T11:04:34;5.63;;;3.92;;
75289;SDS011;63883;48.996;20.804;2023-04-29T11:07:26;5.00;;;3.90;;
75289;SDS011;63883;48.996;20.804;2023-04-29T11:09:53;5.75;;;4.80;;
75289;SDS011;63883;48.996;20.804;2023-04-29T11:12:20;5.05;;;3.88;;
75289;SDS011;63883;48.996;20.804;2023-04-29T11:14:49;8.10;;;5.28;;
75289;SDS011;63883;48.996;20.804;2023-04-29T11:17:16;6.43;;;4.72;;
75289;SDS011;63883;48.996;20.804;2023-04-29T11:19:45;5.07;;;4.13;;
75289;SDS011;63883;48.996;20.804;2023-04-29T11:24:52;4.97;;;4.25;;
75289;SDS011;63883;48.996;20.804;2023-04-29T11:27:18;6.30;;;4.63;;
75289;SDS011;63883;48.996;20.804;2023-04-29T11:29:45;5.90;;;4.63;;
75289;SDS011;63883;48.996;20.804;2023-04-29T11:32:11;7.70;;;4.07;;
75289;SDS011;63883;48.996;20.804;2023-04-29T11:34:38;5.32;;;4.47;;
75289;SDS011;63883;48.996;20.804;2023-04-29T11:37:04;5.25;;;4.65;;
75289;SDS011;63883;48.996;20.804;2023-04-29T11:39:33;5.10;;;4.60;;
75289;SDS011;63883;48.996;20.804;2023-04-29T11:42:06;5.72;;;4.68;;
75289;SDS011;63883;48.996;20.804;2023-04-29T11:44:32;5.18;;;4.30;;
75289;SDS011;63883;48.996;20.804;2023-04-29T11:47:00;5.53;;;4.32;;
75289;SDS011;63883;48.996;20.804;2023-04-29T11:49:30;5.60;;;4.18;;
75289;SDS011;63883;48.996;20.804;2023-04-29T11:51:57;5.43;;;4.43;;
75289;SDS011;63883;48.996;20.804;2023-04-29T11:54:26;5.45;;;4.63;;
75289;SDS011;63883;48.996;20.804;2023-04-29T11:56:53;5.90;;;4.65;;
75289;SDS011;63883;48.996;20.804;2023-04-29T11:59:22;5.97;;;4.85;;
75289;SDS011;63883;48.996;20.804;2023-04-29T12:01:49;5.93;;;4.90;;
75289;SDS011;63883;48.996;20.804;2023-04-29T12:04:16;5.88;;;5.00;;
75289;SDS011;63883;48.996;20.804;2023-04-29T12:06:42;7.93;;;5.32;;
75289;SDS011;63883;48.996;20.804;2023-04-29T12:09:08;7.63;;;5.32;;
75289;SDS011;63883;48.996;20.804;2023-04-29T12:11:34;4.88;;;4.38;;
75289;SDS011;63883;48.996;20.804;2023-04-29T12:14:01;5.93;;;4.70;;
75289;SDS011;63883;48.996;20.804;2023-04-29T12:16:33;5.57;;;4.80;;
75289;SDS011;63883;48.996;20.804;2023-04-29T12:18:59;5.15;;;4.50;;
75289;SDS011;63883;48.996;20.804;2023-04-29T12:21:26;6.80;;;4.95;;
75289;SDS011;63883;48.996;20.804;2023-04-29T12:23:52;6.10;;;4.78;;
75289;SDS011;63883;48.996;20.804;2023-04-29T12:26:18;7.13;;;4.90;;
75289;SDS011;63883;48.996;20.804;2023-04-29T12:28:45;6.80;;;4.90;;
75289;SDS011;63883;48.996;20.804;2023-04-29T12:31:13;6.28;;;4.72;;
75289;SDS011;63883;48.996;20.804;2023-04-29T12:33:43;4.90;;;4.10;;
75289;SDS011;63883;48.996;20.804;2023-04-29T12:36:15;7.35;;;5.20;;
75289;SDS011;63883;48.996;20.804;2023-04-29T12:38:46;5.55;;;4.80;;
75289;SDS011;63883;48.996;20.804;2023-04-29T12:41:13;6.47;;;5.10;;
75289;SDS011;63883;48.996;20.804;2023-04-29T12:43:41;6.60;;;5.03;;
75289;SDS011;63883;48.996;20.804;2023-04-29T12:46:09;5.38;;;4.85;;
75289;SDS011;63883;48.996;20.804;2023-04-29T12:48:37;5.28;;;4.75;;
75289;SDS011;63883;48.996;20.804;2023-04-29T12:51:07;8.48;;;6.03;;
75289;SDS011;63883;48.996;20.804;2023-04-29T12:53:36;7.50;;;5.20;;
75289;SDS011;63883;48.996;20.804;2023-04-29T12:56:03;6.65;;;5.43;;
75289;SDS011;63883;48.996;20.804;2023-04-29T12:58:30;6.82;;;5.43;;
75289;SDS011;63883;48.996;20.804;2023-04-29T13:00:57;7.13;;;5.28;;
75289;SDS011;63883;48.996;20.804;2023-04-29T13:03:23;5.55;;;4.25;;
75289;SDS011;63883;48.996;20.804;2023-04-29T13:05:48;5.63;;;4.90;;
75289;SDS011;63883;48.996;20.804;2023-04-29T13:08:18;5.47;;;4.72;;
75289;SDS011;63883;48.996;20.804;2023-04-29T13:10:43;5.78;;;4.25;;
75289;SDS011;63883;48.996;20.804;2023-04-29T13:13:09;4.97;;;4.47;;
75289;SDS011;63883;48.996;20.804;2023-04-29T13:15:36;5.95;;;4.20;;
75289;SDS011;63883;48.996;20.804;2023-04-29T13:18:05;4.88;;;4.13;;
75289;SDS011;63883;48.996;20.804;2023-04-29T13:20:30;5.90;;;4.30;;
75289;SDS011;63883;48.996;20.804;2023-04-29T13:22:58;5.03;;;4.20;;
75289;SDS011;63883;48.996;20.804;2023-04-29T13:25:23;4.32;;;3.92;;
75289;SDS011;63883;48.996;20.804;2023-04-29T13:27:49;4.72;;;3.90;;
75289;SDS011;63883;48.996;20.804;2023-04-29T13:30:15;4.28;;;3.88;;
75289;SDS011;63883;48.996;20.804;2023-04-29T13:32:41;4.72;;;4.22;;
75289;SDS011;63883;48.996;20.804;2023-04-29T13:35:07;5.20;;;4.25;;
75289;SDS011;63883;48.996;20.804;2023-04-29T13:37:33;4.60;;;4.18;;
75289;SDS011;63883;48.996;20.804;2023-04-29T13:39:59;4.95;;;3.92;;
75289;SDS011;63883;48.996;20.804;2023-04-29T13:42:24;4.90;;;4.20;;
75289;SDS011;63883;48.996;20.804;2023-04-29T13:44:50;4.50;;;4.05;;
75289;SDS011;63883;48.996;20.804;2023-04-29T13:47:18;4.45;;;3.75;;
75289;SDS011;63883;48.996;20.804;2023-04-29T13:49:43;4.75;;;3.95;;
75289;SDS011;63883;48.996;20.804;2023-04-29T13:52:10;5.10;;;3.92;;
75289;SDS011;63883;48.996;20.804;2023-04-29T13:54:36;4.32;;;3.92;;
75289;SDS011;63883;48.996;20.804;2023-04-29T13:57:02;5.30;;;4.00;;
75289;SDS011;63883;48.996;20.804;2023-04-29T13:59:29;4.40;;;3.95;;
75289;SDS011;63883;48.996;20.804;2023-04-29T14:01:56;4.82;;;3.90;;
75289;SDS011;63883;48.996;20.804;2023-04-29T14:04:23;4.32;;;3.92;;
75289;SDS011;63883;48.996;20.804;2023-04-29T14:06:49;6.28;;;4.07;;
75289;SDS011;63883;48.996;20.804;2023-04-29T14:09:15;4.75;;;3.92;;
75289;SDS011;63883;48.996;20.804;2023-04-29T14:11:41;4.40;;;4.00;;
75289;SDS011;63883;48.996;20.804;2023-04-29T14:14:07;3.92;;;3.63;;
75289;SDS011;63883;48.996;20.804;2023-04-29T14:16:33;4.53;;;4.03;;
75289;SDS011;63883;48.996;20.804;2023-04-29T14:18:58;6.07;;;4.07;;
75289;SDS011;63883;48.996;20.804;2023-04-29T14:21:24;5.40;;;4.10;;
75289;SDS011;63883;48.996;20.804;2023-04-29T14:23:50;4.85;;;3.97;;
75289;SDS011;63883;48.996;20.804;2023-04-29T14:26:16;4.70;;;3.83;;
75289;SDS011;63883;48.996;20.804;2023-04-29T14:28:42;3.90;;;3.58;;
75289;SDS011;63883;48.996;20.804;2023-04-29T14:31:07;5.00;;;4.50;;
75289;SDS011;63883;48.996;20.804;2023-04-29T14:33:33;6.35;;;4.88;;
75289;SDS011;63883;48.996;20.804;2023-04-29T14:35:59;5.55;;;4.53;;
75289;SDS011;63883;48.996;20.804;2023-04-29T14:38:27;5.20;;;3.78;;
75289;SDS011;63883;48.996;20.804;2023-04-29T14:40:53;5.30;;;3.85;;
75289;SDS011;63883;48.996;20.804;2023-04-29T14:43:19;4.85;;;4.15;;
75289;SDS011;63883;48.996;20.804;2023-04-29T14:45:45;4.60;;;4.03;;
75289;SDS011;63883;48.996;20.804;2023-04-29T14:48:11;5.10;;;4.32;;
75289;SDS011;63883;48.996;20.804;2023-04-29T14:50:37;6.30;;;4.57;;
75289;SDS011;63883;48.996;20.804;2023-04-29T14:53:02;4.40;;;3.97;;
75289;SDS011;63883;48.996;20.804;2023-04-29T14:55:28;4.72;;;4.13;;
75289;SDS011;63883;48.996;20.804;2023-04-29T14:57:54;4.30;;;3.90;;
75289;SDS011;63883;48.996;20.804;2023-04-29T15:00:20;5.15;;;4.32;;